Terminal Aerodrome Forecast
Issued by NWS Wilmington, NC

Home | Current Version | Previous Version | Text Only | Print | Product List | Glossary On
Versions: 1 2 3 4 5 6 7 8 9 10 11 12 13 14 15 16 17 18 19 20 21 22
000
FTUS42 KILM 181100
TAFFLO
TAF
KFLO 181120Z 1812/1912 36003KT P6SM SCT040 SCT150 BKN250
     FM181400 05007KT P6SM SCT120 BKN250
     FM182300 VRB03KT P6SM SCT060 BKN100=

USA.gov is the U.S. government's official web portal to all federal, state and local government web resources and services.